Senecaville, Ohio
Current Conditions -  °F | °C
As of 1:53 AM on Sunday 23 Nov 2014 (Local Time) from KZZV Reporting Station
Overcast Overcast  
Wind Chill: 46°   Ceiling: 5500
Heat Index: 48°   Visibility: 10mi
Dew Point: 32°   Wind: 5mph
Humidity: 54%   Direction: 170°S
Pressure: 30.08"   Gusts: NA
Location:  39.93°N, 81.46°W
Report Text: KZZV 230653Z AUTO 17004KT 10SM BKN055 OVC070 09/00 A3008 RMK AO2 SLP189 T00890000
Loading
Personal Weather Stations






























Interactive Weather Map New forecast layout! Learn more

10-Day Weather Forecast

Advertisements
Track Severe Weather on mobile